sensor_id;sensor_type;location;lat;lon;timestamp;P1;durP1;ratioP1;P2;durP2;ratioP2
8349;SDS011;60699;48.946;8.412;2022-11-03T00:02:21;3.35;;;2.40;;
8349;SDS011;60699;48.946;8.412;2022-11-03T00:04:50;3.88;;;2.65;;
8349;SDS011;60699;48.946;8.412;2022-11-03T00:07:18;3.38;;;3.05;;
8349;SDS011;60699;48.946;8.412;2022-11-03T00:09:46;3.45;;;3.03;;
8349;SDS011;60699;48.946;8.412;2022-11-03T00:12:13;3.15;;;2.67;;
8349;SDS011;60699;48.946;8.412;2022-11-03T00:14:40;2.90;;;2.70;;
8349;SDS011;60699;48.946;8.412;2022-11-03T00:17:07;2.83;;;2.60;;
8349;SDS011;60699;48.946;8.412;2022-11-03T00:19:35;3.50;;;3.20;;
8349;SDS011;60699;48.946;8.412;2022-11-03T00:22:03;3.85;;;2.65;;
8349;SDS011;60699;48.946;8.412;2022-11-03T00:24:30;3.60;;;3.08;;
8349;SDS011;60699;48.946;8.412;2022-11-03T00:26:57;2.45;;;2.35;;
8349;SDS011;60699;48.946;8.412;2022-11-03T00:29:24;3.08;;;2.78;;
8349;SDS011;60699;48.946;8.412;2022-11-03T00:31:51;5.65;;;2.22;;
8349;SDS011;60699;48.946;8.412;2022-11-03T00:34:18;6.40;;;2.50;;
8349;SDS011;60699;48.946;8.412;2022-11-03T00:36:45;4.93;;;2.80;;
8349;SDS011;60699;48.946;8.412;2022-11-03T00:39:14;4.40;;;2.78;;
8349;SDS011;60699;48.946;8.412;2022-11-03T00:41:41;4.53;;;2.85;;
8349;SDS011;60699;48.946;8.412;2022-11-03T00:44:08;9.52;;;2.88;;
8349;SDS011;60699;48.946;8.412;2022-11-03T00:46:37;3.15;;;2.95;;
8349;SDS011;60699;48.946;8.412;2022-11-03T00:49:04;2.63;;;2.42;;
8349;SDS011;60699;48.946;8.412;2022-11-03T00:51:31;3.17;;;2.88;;
8349;SDS011;60699;48.946;8.412;2022-11-03T00:54:00;4.05;;;3.00;;
8349;SDS011;60699;48.946;8.412;2022-11-03T00:56:30;2.75;;;2.55;;
8349;SDS011;60699;48.946;8.412;2022-11-03T00:58:57;3.97;;;2.83;;
8349;SDS011;60699;48.946;8.412;2022-11-03T01:01:26;3.53;;;3.15;;
8349;SDS011;60699;48.946;8.412;2022-11-03T01:03:55;2.13;;;2.03;;
8349;SDS011;60699;48.946;8.412;2022-11-03T01:06:43;2.58;;;2.35;;
8349;SDS011;60699;48.946;8.412;2022-11-03T01:09:16;3.17;;;2.75;;
8349;SDS011;60699;48.946;8.412;2022-11-03T01:14:14;3.17;;;2.63;;
8349;SDS011;60699;48.946;8.412;2022-11-03T01:16:41;3.22;;;2.30;;
8349;SDS011;60699;48.946;8.412;2022-11-03T01:19:09;3.45;;;2.97;;
8349;SDS011;60699;48.946;8.412;2022-11-03T01:21:36;4.22;;;3.00;;
8349;SDS011;60699;48.946;8.412;2022-11-03T01:24:03;4.65;;;2.60;;
8349;SDS011;60699;48.946;8.412;2022-11-03T01:26:30;4.35;;;2.60;;
8349;SDS011;60699;48.946;8.412;2022-11-03T01:28:58;2.47;;;2.38;;
8349;SDS011;60699;48.946;8.412;2022-11-03T01:31:27;5.35;;;2.85;;
8349;SDS011;60699;48.946;8.412;2022-11-03T01:33:55;3.30;;;3.08;;
8349;SDS011;60699;48.946;8.412;2022-11-03T01:36:22;3.38;;;2.47;;
8349;SDS011;60699;48.946;8.412;2022-11-03T01:38:49;5.72;;;3.20;;
8349;SDS011;60699;48.946;8.412;2022-11-03T01:41:17;2.50;;;2.33;;
8349;SDS011;60699;48.946;8.412;2022-11-03T01:43:45;2.95;;;2.20;;
8349;SDS011;60699;48.946;8.412;2022-11-03T01:46:14;2.63;;;2.40;;
8349;SDS011;60699;48.946;8.412;2022-11-03T01:48:45;2.85;;;2.60;;
8349;SDS011;60699;48.946;8.412;2022-11-03T01:51:13;3.00;;;2.35;;
8349;SDS011;60699;48.946;8.412;2022-11-03T01:53:41;2.65;;;2.45;;
8349;SDS011;60699;48.946;8.412;2022-11-03T01:56:09;3.30;;;3.10;;
8349;SDS011;60699;48.946;8.412;2022-11-03T01:58:37;2.70;;;2.50;;
8349;SDS011;60699;48.946;8.412;2022-11-03T02:01:05;4.68;;;2.40;;
8349;SDS011;60699;48.946;8.412;2022-11-03T02:03:34;4.65;;;2.45;;
8349;SDS011;60699;48.946;8.412;2022-11-03T02:06:04;6.05;;;3.05;;
8349;SDS011;60699;48.946;8.412;2022-11-03T02:08:33;2.47;;;2.28;;
8349;SDS011;60699;48.946;8.412;2022-11-03T02:11:01;2.33;;;2.15;;
8349;SDS011;60699;48.946;8.412;2022-11-03T02:13:49;1.92;;;1.83;;
8349;SDS011;60699;48.946;8.412;2022-11-03T02:16:16;2.65;;;2.30;;
8349;SDS011;60699;48.946;8.412;2022-11-03T02:18:44;4.40;;;2.83;;
8349;SDS011;60699;48.946;8.412;2022-11-03T02:21:14;2.88;;;2.30;;
8349;SDS011;60699;48.946;8.412;2022-11-03T02:23:43;7.47;;;1.98;;
8349;SDS011;60699;48.946;8.412;2022-11-03T02:26:16;2.45;;;1.90;;
8349;SDS011;60699;48.946;8.412;2022-11-03T02:28:43;2.00;;;1.90;;
8349;SDS011;60699;48.946;8.412;2022-11-03T02:31:11;2.50;;;2.30;;
8349;SDS011;60699;48.946;8.412;2022-11-03T02:33:43;2.15;;;1.95;;
8349;SDS011;60699;48.946;8.412;2022-11-03T02:36:14;2.53;;;1.90;;
8349;SDS011;60699;48.946;8.412;2022-11-03T02:38:44;6.25;;;2.80;;
8349;SDS011;60699;48.946;8.412;2022-11-03T02:41:12;2.83;;;2.42;;
8349;SDS011;60699;48.946;8.412;2022-11-03T02:43:41;3.28;;;2.35;;
8349;SDS011;60699;48.946;8.412;2022-11-03T02:46:09;1.90;;;1.80;;
8349;SDS011;60699;48.946;8.412;2022-11-03T02:48:37;3.42;;;2.53;;
8349;SDS011;60699;48.946;8.412;2022-11-03T02:51:04;2.33;;;2.22;;
8349;SDS011;60699;48.946;8.412;2022-11-03T02:53:33;3.63;;;2.60;;
8349;SDS011;60699;48.946;8.412;2022-11-03T02:56:03;4.43;;;2.40;;
8349;SDS011;60699;48.946;8.412;2022-11-03T02:58:33;3.38;;;1.90;;
8349;SDS011;60699;48.946;8.412;2022-11-03T03:01:03;2.00;;;1.80;;
8349;SDS011;60699;48.946;8.412;2022-11-03T03:03:39;8.45;;;2.15;;
8349;SDS011;60699;48.946;8.412;2022-11-03T03:06:08;4.20;;;2.25;;
8349;SDS011;60699;48.946;8.412;2022-11-03T03:08:37;3.28;;;2.50;;
8349;SDS011;60699;48.946;8.412;2022-11-03T03:11:05;4.20;;;1.95;;
8349;SDS011;60699;48.946;8.412;2022-11-03T03:13:33;2.92;;;2.30;;
8349;SDS011;60699;48.946;8.412;2022-11-03T03:16:05;2.42;;;2.17;;
8349;SDS011;60699;48.946;8.412;2022-11-03T03:18:40;2.60;;;1.80;;
8349;SDS011;60699;48.946;8.412;2022-11-03T03:21:10;2.17;;;1.92;;
8349;SDS011;60699;48.946;8.412;2022-11-03T03:23:40;2.17;;;2.05;;
8349;SDS011;60699;48.946;8.412;2022-11-03T03:26:12;2.65;;;2.15;;
8349;SDS011;60699;48.946;8.412;2022-11-03T03:28:42;1.83;;;1.73;;
8349;SDS011;60699;48.946;8.412;2022-11-03T03:31:13;4.72;;;2.03;;
8349;SDS011;60699;48.946;8.412;2022-11-03T03:33:40;2.55;;;2.35;;
8349;SDS011;60699;48.946;8.412;2022-11-03T03:36:08;3.63;;;2.13;;
8349;SDS011;60699;48.946;8.412;2022-11-03T03:38:37;3.42;;;2.22;;
8349;SDS011;60699;48.946;8.412;2022-11-03T03:41:05;2.90;;;2.22;;
8349;SDS011;60699;48.946;8.412;2022-11-03T03:43:33;4.30;;;2.50;;
8349;SDS011;60699;48.946;8.412;2022-11-03T03:46:02;5.63;;;2.42;;
8349;SDS011;60699;48.946;8.412;2022-11-03T03:48:31;3.60;;;2.83;;
8349;SDS011;60699;48.946;8.412;2022-11-03T03:50:58;2.20;;;2.00;;
8349;SDS011;60699;48.946;8.412;2022-11-03T03:53:26;2.72;;;2.50;;
8349;SDS011;60699;48.946;8.412;2022-11-03T03:55:53;2.45;;;2.20;;
8349;SDS011;60699;48.946;8.412;2022-11-03T03:58:20;2.40;;;2.13;;
8349;SDS011;60699;48.946;8.412;2022-11-03T04:00:47;2.60;;;2.22;;
8349;SDS011;60699;48.946;8.412;2022-11-03T04:03:15;7.80;;;2.13;;
8349;SDS011;60699;48.946;8.412;2022-11-03T04:05:44;2.67;;;2.47;;
8349;SDS011;60699;48.946;8.412;2022-11-03T04:08:11;2.90;;;2.70;;
8349;SDS011;60699;48.946;8.412;2022-11-03T04:10:39;2.97;;;2.75;;
8349;SDS011;60699;48.946;8.412;2022-11-03T04:13:26;3.00;;;2.60;;
8349;SDS011;60699;48.946;8.412;2022-11-03T04:16:10;2.50;;;2.30;;
8349;SDS011;60699;48.946;8.412;2022-11-03T04:18:55;3.53;;;2.35;;
8349;SDS011;60699;48.946;8.412;2022-11-03T04:21:41;3.55;;;2.20;;
8349;SDS011;60699;48.946;8.412;2022-11-03T04:24:26;3.80;;;2.08;;
8349;SDS011;60699;48.946;8.412;2022-11-03T04:26:53;4.03;;;2.45;;
8349;SDS011;60699;48.946;8.412;2022-11-03T04:29:21;6.03;;;1.95;;
8349;SDS011;60699;48.946;8.412;2022-11-03T04:31:48;2.92;;;2.72;;
8349;SDS011;60699;48.946;8.412;2022-11-03T04:34:15;3.45;;;2.13;;
8349;SDS011;60699;48.946;8.412;2022-11-03T04:36:43;1.92;;;1.83;;
8349;SDS011;60699;48.946;8.412;2022-11-03T04:39:13;2.72;;;2.20;;
8349;SDS011;60699;48.946;8.412;2022-11-03T04:41:41;2.55;;;2.25;;
8349;SDS011;60699;48.946;8.412;2022-11-03T04:44:10;4.13;;;2.80;;
8349;SDS011;60699;48.946;8.412;2022-11-03T04:46:39;2.83;;;2.10;;
8349;SDS011;60699;48.946;8.412;2022-11-03T04:49:06;5.25;;;2.30;;
8349;SDS011;60699;48.946;8.412;2022-11-03T04:51:36;2.40;;;2.20;;
8349;SDS011;60699;48.946;8.412;2022-11-03T04:54:10;1.70;;;1.60;;
8349;SDS011;60699;48.946;8.412;2022-11-03T04:56:39;3.75;;;2.40;;
8349;SDS011;60699;48.946;8.412;2022-11-03T04:59:07;3.17;;;2.80;;
8349;SDS011;60699;48.946;8.412;2022-11-03T05:01:36;1.92;;;1.70;;
8349;SDS011;60699;48.946;8.412;2022-11-03T05:04:04;2.55;;;2.35;;
8349;SDS011;60699;48.946;8.412;2022-11-03T05:06:34;1.83;;;1.67;;
8349;SDS011;60699;48.946;8.412;2022-11-03T05:09:04;2.20;;;2.10;;
8349;SDS011;60699;48.946;8.412;2022-11-03T05:11:33;3.15;;;2.33;;
8349;SDS011;60699;48.946;8.412;2022-11-03T05:14:01;2.65;;;1.80;;
8349;SDS011;60699;48.946;8.412;2022-11-03T05:16:29;2.67;;;2.30;;
8349;SDS011;60699;48.946;8.412;2022-11-03T05:18:57;2.65;;;2.45;;
8349;SDS011;60699;48.946;8.412;2022-11-03T05:21:25;2.30;;;2.10;;
8349;SDS011;60699;48.946;8.412;2022-11-03T05:23:54;2.10;;;2.00;;
8349;SDS011;60699;48.946;8.412;2022-11-03T05:26:23;2.22;;;2.08;;
8349;SDS011;60699;48.946;8.412;2022-11-03T05:28:53;2.00;;;1.90;;
8349;SDS011;60699;48.946;8.412;2022-11-03T05:31:24;4.57;;;2.75;;
8349;SDS011;60699;48.946;8.412;2022-11-03T05:33:52;4.03;;;2.30;;
8349;SDS011;60699;48.946;8.412;2022-11-03T05:36:20;4.38;;;1.80;;
8349;SDS011;60699;48.946;8.412;2022-11-03T05:38:48;4.38;;;2.45;;
8349;SDS011;60699;48.946;8.412;2022-11-03T05:41:18;1.90;;;1.80;;
8349;SDS011;60699;48.946;8.412;2022-11-03T05:43:48;2.30;;;2.17;;
8349;SDS011;60699;48.946;8.412;2022-11-03T05:46:18;7.40;;;3.28;;
8349;SDS011;60699;48.946;8.412;2022-11-03T05:48:45;3.00;;;2.80;;
8349;SDS011;60699;48.946;8.412;2022-11-03T05:51:14;3.58;;;3.35;;
8349;SDS011;60699;48.946;8.412;2022-11-03T05:53:44;4.55;;;2.42;;
8349;SDS011;60699;48.946;8.412;2022-11-03T05:56:14;2.17;;;1.98;;
8349;SDS011;60699;48.946;8.412;2022-11-03T05:58:43;4.40;;;2.20;;
8349;SDS011;60699;48.946;8.412;2022-11-03T06:01:11;3.17;;;2.72;;
8349;SDS011;60699;48.946;8.412;2022-11-03T06:03:40;4.82;;;2.72;;
8349;SDS011;60699;48.946;8.412;2022-11-03T06:06:10;4.55;;;2.92;;
8349;SDS011;60699;48.946;8.412;2022-11-03T06:08:40;2.45;;;2.20;;
8349;SDS011;60699;48.946;8.412;2022-11-03T06:11:07;2.67;;;2.45;;
8349;SDS011;60699;48.946;8.412;2022-11-03T06:13:36;2.47;;;2.35;;
8349;SDS011;60699;48.946;8.412;2022-11-03T06:16:04;3.50;;;3.20;;
8349;SDS011;60699;48.946;8.412;2022-11-03T06:18:33;3.03;;;2.30;;
8349;SDS011;60699;48.946;8.412;2022-11-03T06:21:04;2.60;;;2.03;;
8349;SDS011;60699;48.946;8.412;2022-11-03T06:23:32;2.35;;;2.15;;
8349;SDS011;60699;48.946;8.412;2022-11-03T06:25:59;3.67;;;2.20;;
8349;SDS011;60699;48.946;8.412;2022-11-03T06:28:29;4.30;;;2.10;;
8349;SDS011;60699;48.946;8.412;2022-11-03T06:30:56;3.00;;;2.00;;
8349;SDS011;60699;48.946;8.412;2022-11-03T06:33:24;3.17;;;2.70;;
8349;SDS011;60699;48.946;8.412;2022-11-03T06:35:52;2.72;;;2.35;;
8349;SDS011;60699;48.946;8.412;2022-11-03T06:38:21;2.35;;;1.60;;
8349;SDS011;60699;48.946;8.412;2022-11-03T06:40:49;4.32;;;2.65;;
8349;SDS011;60699;48.946;8.412;2022-11-03T06:43:18;4.63;;;2.90;;
8349;SDS011;60699;48.946;8.412;2022-11-03T06:45:49;3.28;;;1.98;;
8349;SDS011;60699;48.946;8.412;2022-11-03T06:48:21;4.80;;;2.40;;
8349;SDS011;60699;48.946;8.412;2022-11-03T06:50:49;3.67;;;2.65;;
8349;SDS011;60699;48.946;8.412;2022-11-03T06:53:22;2.42;;;2.30;;
8349;SDS011;60699;48.946;8.412;2022-11-03T06:55:49;8.70;;;3.60;;
8349;SDS011;60699;48.946;8.412;2022-11-03T06:58:18;5.30;;;3.10;;
8349;SDS011;60699;48.946;8.412;2022-11-03T07:00:48;2.50;;;2.30;;
8349;SDS011;60699;48.946;8.412;2022-11-03T07:03:17;2.70;;;2.25;;
8349;SDS011;60699;48.946;8.412;2022-11-03T07:05:45;2.65;;;2.30;;
8349;SDS011;60699;48.946;8.412;2022-11-03T07:08:14;6.18;;;2.20;;
8349;SDS011;60699;48.946;8.412;2022-11-03T07:10:45;3.47;;;2.40;;
8349;SDS011;60699;48.946;8.412;2022-11-03T07:13:13;2.72;;;2.55;;
8349;SDS011;60699;48.946;8.412;2022-11-03T07:15:41;3.85;;;2.88;;
8349;SDS011;60699;48.946;8.412;2022-11-03T07:18:14;3.13;;;2.83;;
8349;SDS011;60699;48.946;8.412;2022-11-03T07:20:43;1.95;;;1.83;;
8349;SDS011;60699;48.946;8.412;2022-11-03T07:23:12;4.15;;;2.42;;
8349;SDS011;60699;48.946;8.412;2022-11-03T07:25:40;3.15;;;2.80;;
8349;SDS011;60699;48.946;8.412;2022-11-03T07:28:08;8.45;;;4.10;;
8349;SDS011;60699;48.946;8.412;2022-11-03T07:30:36;6.43;;;2.80;;
8349;SDS011;60699;48.946;8.412;2022-11-03T07:33:08;7.35;;;2.78;;
8349;SDS011;60699;48.946;8.412;2022-11-03T07:35:37;3.00;;;2.72;;
8349;SDS011;60699;48.946;8.412;2022-11-03T07:38:08;5.57;;;2.83;;
8349;SDS011;60699;48.946;8.412;2022-11-03T07:40:37;4.45;;;2.65;;
8349;SDS011;60699;48.946;8.412;2022-11-03T07:43:13;3.75;;;3.45;;
8349;SDS011;60699;48.946;8.412;2022-11-03T07:45:41;4.75;;;2.85;;
8349;SDS011;60699;48.946;8.412;2022-11-03T07:48:10;3.35;;;3.05;;
8349;SDS011;60699;48.946;8.412;2022-11-03T07:50:40;11.05;;;3.65;;
8349;SDS011;60699;48.946;8.412;2022-11-03T07:53:09;3.83;;;3.45;;
8349;SDS011;60699;48.946;8.412;2022-11-03T07:55:38;4.68;;;3.47;;
8349;SDS011;60699;48.946;8.412;2022-11-03T07:58:14;5.57;;;3.30;;
8349;SDS011;60699;48.946;8.412;2022-11-03T08:00:43;3.05;;;2.90;;
8349;SDS011;60699;48.946;8.412;2022-11-03T08:03:14;3.70;;;3.40;;
8349;SDS011;60699;48.946;8.412;2022-11-03T08:05:45;5.15;;;4.65;;
8349;SDS011;60699;48.946;8.412;2022-11-03T08:08:12;5.38;;;3.63;;
8349;SDS011;60699;48.946;8.412;2022-11-03T08:10:39;4.28;;;3.63;;
8349;SDS011;60699;48.946;8.412;2022-11-03T08:13:06;6.75;;;4.38;;
8349;SDS011;60699;48.946;8.412;2022-11-03T08:15:35;10.13;;;4.35;;
8349;SDS011;60699;48.946;8.412;2022-11-03T08:18:02;4.30;;;3.10;;
8349;SDS011;60699;48.946;8.412;2022-11-03T08:20:29;7.90;;;3.65;;
8349;SDS011;60699;48.946;8.412;2022-11-03T08:22:56;4.85;;;2.95;;
8349;SDS011;60699;48.946;8.412;2022-11-03T08:25:23;5.60;;;5.00;;
8349;SDS011;60699;48.946;8.412;2022-11-03T08:27:50;3.83;;;3.33;;
8349;SDS011;60699;48.946;8.412;2022-11-03T08:30:17;3.25;;;3.05;;
8349;SDS011;60699;48.946;8.412;2022-11-03T08:32:45;9.10;;;3.20;;
8349;SDS011;60699;48.946;8.412;2022-11-03T08:35:13;4.03;;;3.63;;
8349;SDS011;60699;48.946;8.412;2022-11-03T08:37:41;4.50;;;3.80;;
8349;SDS011;60699;48.946;8.412;2022-11-03T08:40:08;6.15;;;3.35;;
8349;SDS011;60699;48.946;8.412;2022-11-03T08:42:35;5.47;;;3.80;;
8349;SDS011;60699;48.946;8.412;2022-11-03T08:45:03;9.32;;;4.60;;
8349;SDS011;60699;48.946;8.412;2022-11-03T08:47:30;3.92;;;3.55;;
8349;SDS011;60699;48.946;8.412;2022-11-03T08:49:58;5.22;;;4.35;;
8349;SDS011;60699;48.946;8.412;2022-11-03T08:52:25;5.55;;;4.60;;
8349;SDS011;60699;48.946;8.412;2022-11-03T08:54:52;4.50;;;4.10;;
8349;SDS011;60699;48.946;8.412;2022-11-03T08:57:20;8.60;;;4.80;;
8349;SDS011;60699;48.946;8.412;2022-11-03T08:59:47;7.13;;;3.88;;
8349;SDS011;60699;48.946;8.412;2022-11-03T09:02:16;5.35;;;4.15;;
8349;SDS011;60699;48.946;8.412;2022-11-03T09:04:43;9.32;;;4.70;;
8349;SDS011;60699;48.946;8.412;2022-11-03T09:07:11;9.23;;;3.88;;
8349;SDS011;60699;48.946;8.412;2022-11-03T09:09:38;9.85;;;3.85;;
8349;SDS011;60699;48.946;8.412;2022-11-03T09:12:05;9.95;;;3.50;;
8349;SDS011;60699;48.946;8.412;2022-11-03T09:14:32;3.90;;;3.50;;
8349;SDS011;60699;48.946;8.412;2022-11-03T09:17:00;6.05;;;4.15;;
8349;SDS011;60699;48.946;8.412;2022-11-03T09:19:27;13.05;;;4.65;;
8349;SDS011;60699;48.946;8.412;2022-11-03T09:21:54;5.50;;;3.40;;
8349;SDS011;60699;48.946;8.412;2022-11-03T09:24:22;4.75;;;4.35;;
8349;SDS011;60699;48.946;8.412;2022-11-03T09:26:49;5.45;;;4.20;;
8349;SDS011;60699;48.946;8.412;2022-11-03T09:29:16;5.10;;;4.60;;
8349;SDS011;60699;48.946;8.412;2022-11-03T09:31:43;6.63;;;4.70;;
8349;SDS011;60699;48.946;8.412;2022-11-03T09:34:10;10.75;;;5.15;;
8349;SDS011;60699;48.946;8.412;2022-11-03T09:36:38;7.90;;;4.80;;
8349;SDS011;60699;48.946;8.412;2022-11-03T09:39:05;7.35;;;4.15;;
8349;SDS011;60699;48.946;8.412;2022-11-03T09:41:33;5.03;;;4.45;;
8349;SDS011;60699;48.946;8.412;2022-11-03T09:44:00;6.97;;;3.75;;
8349;SDS011;60699;48.946;8.412;2022-11-03T09:46:28;5.30;;;4.40;;
8349;SDS011;60699;48.946;8.412;2022-11-03T09:48:55;8.30;;;6.03;;
8349;SDS011;60699;48.946;8.412;2022-11-03T09:51:22;10.90;;;5.30;;
8349;SDS011;60699;48.946;8.412;2022-11-03T09:53:51;5.65;;;5.07;;
8349;SDS011;60699;48.946;8.412;2022-11-03T09:56:20;8.82;;;4.35;;
8349;SDS011;60699;48.946;8.412;2022-11-03T09:58:49;11.48;;;6.72;;
8349;SDS011;60699;48.946;8.412;2022-11-03T10:01:16;5.50;;;5.00;;
8349;SDS011;60699;48.946;8.412;2022-11-03T10:03:43;5.40;;;4.57;;
8349;SDS011;60699;48.946;8.412;2022-11-03T10:06:10;7.25;;;4.97;;
8349;SDS011;60699;48.946;8.412;2022-11-03T10:08:37;8.55;;;5.13;;
8349;SDS011;60699;48.946;8.412;2022-11-03T10:11:06;10.57;;;5.05;;
8349;SDS011;60699;48.946;8.412;2022-11-03T10:13:34;7.53;;;6.82;;
8349;SDS011;60699;48.946;8.412;2022-11-03T10:16:04;8.20;;;5.82;;
8349;SDS011;60699;48.946;8.412;2022-11-03T10:18:31;6.93;;;5.05;;
8349;SDS011;60699;48.946;8.412;2022-11-03T10:21:03;6.28;;;4.88;;
8349;SDS011;60699;48.946;8.412;2022-11-03T10:23:30;8.38;;;5.72;;
8349;SDS011;60699;48.946;8.412;2022-11-03T10:25:59;7.53;;;5.05;;
8349;SDS011;60699;48.946;8.412;2022-11-03T10:28:33;14.98;;;5.68;;
8349;SDS011;60699;48.946;8.412;2022-11-03T10:31:01;16.67;;;4.50;;
8349;SDS011;60699;48.946;8.412;2022-11-03T10:33:32;15.30;;;5.85;;
8349;SDS011;60699;48.946;8.412;2022-11-03T10:36:00;5.20;;;4.57;;
8349;SDS011;60699;48.946;8.412;2022-11-03T10:38:29;6.15;;;5.45;;
8349;SDS011;60699;48.946;8.412;2022-11-03T10:40:56;5.70;;;5.07;;
8349;SDS011;60699;48.946;8.412;2022-11-03T10:43:35;12.30;;;5.32;;
8349;SDS011;60699;48.946;8.412;2022-11-03T10:46:08;6.43;;;5.70;;
8349;SDS011;60699;48.946;8.412;2022-11-03T10:48:38;7.32;;;5.15;;
8349;SDS011;60699;48.946;8.412;2022-11-03T10:51:08;11.10;;;4.82;;
8349;SDS011;60699;48.946;8.412;2022-11-03T10:53:35;7.47;;;5.25;;
8349;SDS011;60699;48.946;8.412;2022-11-03T10:56:02;5.03;;;4.28;;
8349;SDS011;60699;48.946;8.412;2022-11-03T10:58:30;4.93;;;4.13;;
8349;SDS011;60699;48.946;8.412;2022-11-03T11:00:58;6.45;;;4.53;;
8349;SDS011;60699;48.946;8.412;2022-11-03T11:03:25;12.98;;;4.65;;
8349;SDS011;60699;48.946;8.412;2022-11-03T11:05:54;6.57;;;4.35;;
8349;SDS011;60699;48.946;8.412;2022-11-03T11:08:21;6.82;;;4.55;;
8349;SDS011;60699;48.946;8.412;2022-11-03T11:10:49;4.80;;;4.15;;
8349;SDS011;60699;48.946;8.412;2022-11-03T11:13:23;4.85;;;4.22;;
8349;SDS011;60699;48.946;8.412;2022-11-03T11:15:51;5.57;;;4.25;;
8349;SDS011;60699;48.946;8.412;2022-11-03T11:21:01;6.57;;;4.88;;
8349;SDS011;60699;48.946;8.412;2022-11-03T11:23:49;5.93;;;4.13;;
8349;SDS011;60699;48.946;8.412;2022-11-03T11:31:50;5.15;;;3.92;;
8349;SDS011;60699;48.946;8.412;2022-11-03T11:39:50;5.10;;;4.18;;
8349;SDS011;60699;48.946;8.412;2022-11-03T11:42:18;5.72;;;4.45;;
8349;SDS011;60699;48.946;8.412;2022-11-03T11:44:46;5.28;;;3.67;;
8349;SDS011;60699;48.946;8.412;2022-11-03T11:47:21;7.07;;;4.35;;
8349;SDS011;60699;48.946;8.412;2022-11-03T11:49:59;7.28;;;5.13;;
8349;SDS011;60699;48.946;8.412;2022-11-03T11:52:26;8.40;;;4.10;;
8349;SDS011;60699;48.946;8.412;2022-11-03T11:54:54;4.40;;;3.95;;
8349;SDS011;60699;48.946;8.412;2022-11-03T11:57:21;7.53;;;4.00;;
8349;SDS011;60699;48.946;8.412;2022-11-03T11:59:49;5.78;;;3.40;;
8349;SDS011;60699;48.946;8.412;2022-11-03T12:02:18;4.93;;;4.00;;
8349;SDS011;60699;48.946;8.412;2022-11-03T12:04:45;4.35;;;3.95;;
8349;SDS011;60699;48.946;8.412;2022-11-03T12:07:12;8.27;;;4.25;;
8349;SDS011;60699;48.946;8.412;2022-11-03T12:09:40;4.35;;;3.90;;
8349;SDS011;60699;48.946;8.412;2022-11-03T12:12:08;8.30;;;4.25;;
8349;SDS011;60699;48.946;8.412;2022-11-03T12:14:36;6.18;;;4.78;;
8349;SDS011;60699;48.946;8.412;2022-11-03T12:19:49;5.38;;;4.30;;
8349;SDS011;60699;48.946;8.412;2022-11-03T12:24:59;5.32;;;3.90;;
8349;SDS011;60699;48.946;8.412;2022-11-03T12:27:41;5.32;;;4.03;;
8349;SDS011;60699;48.946;8.412;2022-11-03T12:30:12;6.20;;;4.20;;
8349;SDS011;60699;48.946;8.412;2022-11-03T12:32:40;9.93;;;3.92;;
8349;SDS011;60699;48.946;8.412;2022-11-03T12:35:08;5.97;;;4.45;;
8349;SDS011;60699;48.946;8.412;2022-11-03T12:37:35;5.55;;;4.65;;
8349;SDS011;60699;48.946;8.412;2022-11-03T12:40:03;6.75;;;4.40;;
8349;SDS011;60699;48.946;8.412;2022-11-03T12:42:30;7.25;;;4.50;;
8349;SDS011;60699;48.946;8.412;2022-11-03T12:44:58;6.75;;;4.25;;
8349;SDS011;60699;48.946;8.412;2022-11-03T12:47:26;9.23;;;3.95;;
8349;SDS011;60699;48.946;8.412;2022-11-03T12:49:53;8.82;;;3.90;;
8349;SDS011;60699;48.946;8.412;2022-11-03T12:52:20;7.30;;;4.30;;
8349;SDS011;60699;48.946;8.412;2022-11-03T12:54:47;6.28;;;3.90;;
8349;SDS011;60699;48.946;8.412;2022-11-03T12:57:14;9.43;;;4.65;;
8349;SDS011;60699;48.946;8.412;2022-11-03T12:59:41;4.75;;;3.80;;
8349;SDS011;60699;48.946;8.412;2022-11-03T13:02:10;5.00;;;3.80;;
8349;SDS011;60699;48.946;8.412;2022-11-03T13:04:37;6.22;;;4.13;;
8349;SDS011;60699;48.946;8.412;2022-11-03T13:07:04;4.05;;;3.63;;
8349;SDS011;60699;48.946;8.412;2022-11-03T13:09:31;7.70;;;5.65;;
8349;SDS011;60699;48.946;8.412;2022-11-03T13:11:59;5.65;;;5.07;;
8349;SDS011;60699;48.946;8.412;2022-11-03T13:14:44;4.70;;;4.05;;
8349;SDS011;60699;48.946;8.412;2022-11-03T13:17:12;8.07;;;4.45;;
8349;SDS011;60699;48.946;8.412;2022-11-03T13:19:39;8.55;;;5.15;;
8349;SDS011;60699;48.946;8.412;2022-11-03T13:22:07;4.63;;;3.92;;
8349;SDS011;60699;48.946;8.412;2022-11-03T13:24:34;6.88;;;4.35;;
8349;SDS011;60699;48.946;8.412;2022-11-03T13:27:01;6.97;;;4.45;;
8349;SDS011;60699;48.946;8.412;2022-11-03T13:29:28;4.72;;;4.32;;
8349;SDS011;60699;48.946;8.412;2022-11-03T13:31:55;7.60;;;4.80;;
8349;SDS011;60699;48.946;8.412;2022-11-03T13:34:24;8.00;;;4.30;;
8349;SDS011;60699;48.946;8.412;2022-11-03T13:36:51;9.25;;;5.95;;
8349;SDS011;60699;48.946;8.412;2022-11-03T13:39:18;7.30;;;6.57;;
8349;SDS011;60699;48.946;8.412;2022-11-03T13:41:45;8.23;;;4.47;;
8349;SDS011;60699;48.946;8.412;2022-11-03T13:44:12;11.50;;;5.00;;
8349;SDS011;60699;48.946;8.412;2022-11-03T13:46:39;7.57;;;4.00;;
8349;SDS011;60699;48.946;8.412;2022-11-03T13:49:06;4.40;;;4.00;;
8349;SDS011;60699;48.946;8.412;2022-11-03T13:51:35;7.10;;;4.20;;
8349;SDS011;60699;48.946;8.412;2022-11-03T13:54:02;6.10;;;3.90;;
8349;SDS011;60699;48.946;8.412;2022-11-03T13:56:29;7.82;;;4.13;;
8349;SDS011;60699;48.946;8.412;2022-11-03T13:58:56;5.13;;;4.10;;
8349;SDS011;60699;48.946;8.412;2022-11-03T14:01:23;5.28;;;3.65;;
8349;SDS011;60699;48.946;8.412;2022-11-03T14:03:50;7.22;;;3.78;;
8349;SDS011;60699;48.946;8.412;2022-11-03T14:06:17;4.10;;;3.80;;
8349;SDS011;60699;48.946;8.412;2022-11-03T14:08:45;6.97;;;4.20;;
8349;SDS011;60699;48.946;8.412;2022-11-03T14:11:12;8.98;;;5.30;;
8349;SDS011;60699;48.946;8.412;2022-11-03T14:13:56;6.20;;;3.95;;
8349;SDS011;60699;48.946;8.412;2022-11-03T14:16:23;6.40;;;5.25;;
8349;SDS011;60699;48.946;8.412;2022-11-03T14:18:50;4.85;;;4.43;;
8349;SDS011;60699;48.946;8.412;2022-11-03T14:21:17;5.47;;;4.38;;
8349;SDS011;60699;48.946;8.412;2022-11-03T14:23:46;7.65;;;4.35;;
8349;SDS011;60699;48.946;8.412;2022-11-03T14:26:13;6.82;;;4.15;;
8349;SDS011;60699;48.946;8.412;2022-11-03T14:28:40;10.80;;;5.55;;
8349;SDS011;60699;48.946;8.412;2022-11-03T14:31:07;7.47;;;4.18;;
8349;SDS011;60699;48.946;8.412;2022-11-03T14:33:34;6.68;;;4.18;;
8349;SDS011;60699;48.946;8.412;2022-11-03T14:36:01;9.02;;;4.75;;
8349;SDS011;60699;48.946;8.412;2022-11-03T14:38:28;7.93;;;5.10;;
8349;SDS011;60699;48.946;8.412;2022-11-03T14:40:56;4.43;;;3.85;;
8349;SDS011;60699;48.946;8.412;2022-11-03T14:43:41;4.07;;;3.78;;
8349;SDS011;60699;48.946;8.412;2022-11-03T14:46:08;7.78;;;5.57;;
8349;SDS011;60699;48.946;8.412;2022-11-03T14:48:35;7.90;;;4.53;;
8349;SDS011;60699;48.946;8.412;2022-11-03T14:51:02;5.90;;;4.30;;
8349;SDS011;60699;48.946;8.412;2022-11-03T14:53:29;6.28;;;4.10;;
8349;SDS011;60699;48.946;8.412;2022-11-03T14:55:58;5.78;;;4.75;;
8349;SDS011;60699;48.946;8.412;2022-11-03T14:58:25;6.63;;;6.00;;
8349;SDS011;60699;48.946;8.412;2022-11-03T15:00:52;5.38;;;4.65;;
8349;SDS011;60699;48.946;8.412;2022-11-03T15:03:19;4.28;;;3.88;;
8349;SDS011;60699;48.946;8.412;2022-11-03T15:05:46;7.75;;;4.32;;
8349;SDS011;60699;48.946;8.412;2022-11-03T15:08:18;6.15;;;4.68;;
8349;SDS011;60699;48.946;8.412;2022-11-03T15:10:45;7.22;;;4.65;;
8349;SDS011;60699;48.946;8.412;2022-11-03T15:13:14;8.63;;;4.85;;
8349;SDS011;60699;48.946;8.412;2022-11-03T15:15:41;9.77;;;4.65;;
8349;SDS011;60699;48.946;8.412;2022-11-03T15:18:08;5.53;;;4.32;;
8349;SDS011;60699;48.946;8.412;2022-11-03T15:20:35;11.63;;;4.43;;
8349;SDS011;60699;48.946;8.412;2022-11-03T15:23:03;5.95;;;4.55;;
8349;SDS011;60699;48.946;8.412;2022-11-03T15:25:30;5.95;;;4.72;;
8349;SDS011;60699;48.946;8.412;2022-11-03T15:27:57;6.80;;;4.18;;
8349;SDS011;60699;48.946;8.412;2022-11-03T15:30:26;4.68;;;4.25;;
8349;SDS011;60699;48.946;8.412;2022-11-03T15:32:53;9.13;;;6.10;;